createdAt,value
2023-04-18T00:04:12.116Z,8.03
2023-04-18T00:06:39.321Z,7.98
2023-04-18T00:09:06.259Z,7.94
2023-04-18T00:12:09.930Z,7.95
2023-04-18T00:15:32.866Z,7.90
2023-04-18T00:18:37.162Z,7.85
2023-04-18T00:21:04.541Z,7.80
2023-04-18T00:23:31.276Z,7.76
2023-04-18T00:26:54.569Z,7.73
2023-04-18T00:34:23.068Z,7.62
2023-04-18T00:44:31.558Z,7.45
2023-04-18T00:50:40.621Z,7.38
2023-04-18T00:57:07.390Z,7.28
2023-04-18T01:00:12.314Z,7.25
2023-04-18T01:02:40.241Z,7.21
2023-04-18T01:05:32.458Z,7.16
2023-04-18T01:08:55.451Z,7.16
2023-04-18T01:11:22.083Z,7.09
2023-04-18T01:14:06.139Z,7.03
2023-04-18T01:21:16.155Z,6.96
2023-04-18T01:28:10.651Z,6.89
2023-04-18T01:30:37.201Z,6.83
2023-04-18T01:36:59.176Z,6.81
2023-04-18T01:43:27.430Z,6.83
2023-04-18T01:49:46.730Z,6.91
2023-04-18T01:56:00.596Z,7.01
2023-04-18T02:02:14.478Z,7.10
2023-04-18T02:08:28.462Z,7.17
2023-04-18T02:14:42.771Z,7.23
2023-04-18T02:20:49.826Z,7.25
2023-04-18T02:23:18.385Z,7.26
2023-04-18T02:25:44.980Z,7.28
2023-04-18T02:29:07.830Z,7.34
2023-04-18T02:31:40.429Z,7.36
2023-04-18T02:35:03.534Z,7.37
2023-04-18T02:41:19.551Z,7.40
2023-04-18T02:44:42.703Z,7.45
2023-04-18T02:47:09.630Z,7.46
2023-04-18T02:49:36.150Z,7.47
2023-04-18T03:58:48.417Z,7.58
2023-04-18T04:02:11.228Z,7.57
2023-04-18T04:04:37.837Z,7.58
2023-04-18T04:07:04.684Z,7.59
2023-04-18T04:13:12.378Z,7.56
2023-04-18T04:19:30.070Z,7.57
2023-04-18T04:22:56.000Z,7.56
2023-04-18T04:25:25.518Z,7.54
2023-04-18T04:28:31.070Z,7.55
2023-04-18T04:30:57.957Z,7.55
2023-04-18T04:36:45.540Z,7.52
2023-04-18T04:39:12.839Z,7.53
2023-04-18T04:45:30.068Z,7.54
2023-04-18T04:51:47.046Z,7.53
2023-04-18T04:58:41.937Z,7.53
2023-04-18T05:01:09.244Z,7.53
2023-04-18T05:03:36.706Z,7.53
2023-04-18T05:09:43.817Z,7.65
2023-04-18T05:12:10.352Z,7.69
2023-04-18T05:14:36.961Z,7.74
2023-04-18T05:17:05.820Z,7.79
2023-04-18T05:19:32.392Z,7.79
2023-04-18T05:21:59.012Z,7.82
2023-04-18T05:24:25.733Z,7.84
2023-04-18T05:30:32.782Z,7.81
2023-04-18T05:32:59.353Z,7.77
2023-04-18T05:39:17.090Z,7.81
2023-04-18T05:49:24.857Z,7.91
2023-04-18T05:55:42.243Z,7.90
2023-04-18T05:58:08.854Z,7.90
2023-04-18T06:00:35.825Z,7.93
2023-04-18T06:03:02.742Z,7.94
2023-04-18T06:06:07.089Z,7.98
2023-04-18T06:08:33.666Z,8.02
2023-04-18T06:11:00.353Z,8.05
2023-04-18T06:13:45.627Z,8.10
2023-04-18T06:16:12.526Z,8.15
2023-04-18T06:18:39.309Z,8.37
2023-04-18T06:24:56.632Z,9.52
2023-04-18T06:27:42.034Z,9.95
2023-04-18T06:30:09.083Z,10.33
2023-04-18T06:36:27.528Z,10.61
2023-04-18T06:38:54.076Z,10.20
2023-04-18T06:41:20.599Z,9.89
2023-04-18T06:44:02.029Z,9.71
2023-04-18T06:46:33.752Z,9.78
2023-04-18T06:49:00.485Z,9.73
2023-04-18T06:51:27.487Z,9.51
2023-04-18T06:53:54.260Z,9.44
2023-04-18T06:56:21.600Z,9.33
2023-04-18T07:02:42.280Z,9.20
2023-04-18T07:09:01.572Z,9.23
2023-04-18T07:15:09.515Z,9.32
2023-04-18T07:17:36.086Z,9.36
2023-04-18T07:20:02.713Z,9.46
2023-04-18T07:22:29.291Z,9.75
2023-04-18T07:25:52.378Z,9.83
2023-04-18T07:31:59.630Z,9.74
2023-04-18T07:34:29.636Z,9.58
2023-04-18T07:36:59.731Z,9.57
2023-04-18T07:39:26.235Z,9.59
2023-04-18T07:41:52.894Z,9.56
2023-04-18T07:48:01.887Z,9.58
2023-04-18T07:54:19.312Z,9.64
2023-04-18T07:56:45.891Z,9.63
2023-04-18T08:03:35.017Z,9.53
2023-04-18T08:06:02.429Z,9.52
2023-04-18T08:08:29.136Z,9.58
2023-04-18T08:11:52.165Z,9.60
2023-04-18T08:14:18.698Z,9.51
2023-04-18T08:16:45.493Z,9.59
2023-04-18T08:19:12.385Z,9.65
2023-04-18T08:21:39.363Z,9.69
2023-04-18T08:24:06.277Z,9.72
2023-04-18T08:26:32.844Z,9.80
2023-04-18T08:28:59.431Z,9.88
2023-04-18T08:31:26.011Z,9.82
2023-04-18T08:33:52.696Z,9.92
2023-04-18T08:36:19.278Z,10.01
2023-04-18T08:38:46.688Z,10.09
2023-04-18T08:41:14.301Z,10.13
2023-04-18T08:43:40.907Z,10.15
2023-04-18T08:46:07.989Z,10.14
2023-04-18T08:52:19.278Z,10.37
2023-04-18T08:54:47.234Z,10.49
2023-04-18T09:01:58.007Z,11.04
2023-04-18T09:08:59.197Z,11.57
2023-04-18T09:11:29.115Z,11.48
2023-04-18T09:18:10.573Z,11.39
2023-04-18T09:24:28.713Z,11.28
2023-04-18T09:26:57.163Z,11.38
2023-04-18T09:30:02.491Z,11.48
2023-04-18T09:36:22.198Z,11.65
2023-04-18T09:38:54.623Z,11.66
2023-04-18T09:41:23.420Z,11.74
2023-04-18T09:44:27.795Z,11.81
2023-04-18T09:50:46.394Z,12.67
2023-04-18T09:53:20.051Z,12.88
2023-04-18T10:00:44.363Z,12.54
2023-04-18T10:03:44.410Z,12.52
2023-04-18T10:06:14.830Z,12.56
2023-04-18T10:08:42.288Z,12.49
2023-04-18T10:11:09.002Z,12.32
2023-04-18T10:13:39.343Z,12.17
2023-04-18T10:16:06.928Z,12.19
2023-04-18T10:18:33.663Z,12.41
2023-04-18T10:21:04.302Z,12.62
2023-04-18T10:23:36.257Z,12.74
2023-04-18T10:29:51.540Z,12.64
2023-04-18T10:32:20.040Z,12.68
2023-04-18T10:34:48.102Z,12.84
2023-04-18T10:37:14.989Z,12.93
2023-04-18T10:40:06.625Z,12.90
2023-04-18T10:46:27.912Z,12.83
2023-04-18T10:49:27.860Z,12.71
2023-04-18T10:52:00.341Z,12.66
2023-04-18T10:58:17.374Z,12.64
2023-04-18T11:03:36.301Z,12.68
2023-04-18T11:06:03.605Z,12.71
2023-04-18T11:08:30.710Z,12.86
2023-04-18T11:11:02.900Z,13.19
2023-04-18T11:13:29.757Z,13.45
2023-04-18T11:15:56.396Z,13.64
2023-04-18T11:18:23.015Z,13.86
2023-04-18T11:20:51.289Z,13.94
2023-04-18T11:23:21.478Z,13.94
2023-04-18T11:25:51.559Z,13.85
2023-04-18T11:28:22.089Z,13.73
2023-04-18T11:30:48.782Z,13.74
2023-04-18T11:33:15.754Z,13.96
2023-04-18T11:35:45.384Z,14.21
2023-04-18T11:38:14.582Z,14.28
2023-04-18T11:40:48.721Z,14.23
2023-04-18T11:43:21.076Z,14.20
2023-04-18T11:45:59.807Z,14.24
2023-04-18T11:48:37.202Z,14.41
2023-04-18T11:51:04.761Z,14.55
2023-04-18T11:53:35.971Z,14.58
2023-04-18T11:56:03.870Z,14.51
2023-04-18T11:58:34.677Z,14.30
2023-04-18T12:01:16.733Z,14.33
2023-04-18T12:03:45.423Z,14.18
2023-04-18T12:06:12.396Z,13.95
2023-04-18T12:08:38.977Z,13.95
2023-04-18T12:11:05.864Z,13.93
2023-04-18T12:13:32.940Z,13.95
2023-04-18T12:16:02.077Z,13.94
2023-04-18T12:18:30.043Z,13.95
2023-04-18T12:20:58.661Z,14.04
2023-04-18T12:23:36.093Z,14.12
2023-04-18T12:26:07.248Z,14.10
2023-04-18T12:28:35.012Z,14.16
2023-04-18T12:31:02.034Z,14.26
2023-04-18T12:33:28.697Z,14.16
2023-04-18T12:39:36.238Z,13.86
2023-04-18T12:42:21.536Z,13.80
2023-04-18T12:44:48.136Z,13.85
2023-04-18T12:47:14.709Z,13.77
2023-04-18T12:49:41.450Z,13.90
2023-04-18T12:52:08.153Z,14.04
2023-04-18T12:58:26.314Z,14.39
2023-04-18T13:04:34.733Z,14.58
2023-04-18T13:10:42.181Z,14.40
2023-04-18T13:13:08.756Z,14.41
2023-04-18T13:15:35.335Z,14.54
2023-04-18T13:18:05.088Z,14.71
2023-04-18T13:20:32.888Z,14.61
2023-04-18T13:22:59.436Z,14.61
2023-04-18T13:25:26.633Z,14.60
2023-04-18T13:27:53.425Z,14.67
2023-04-18T13:34:10.875Z,14.71
2023-04-18T13:40:28.327Z,15.00
2023-04-18T13:42:54.968Z,15.06
2023-04-18T13:45:22.111Z,15.12
2023-04-18T13:47:48.774Z,15.24
2023-04-18T13:50:15.416Z,15.27
2023-04-18T13:52:42.123Z,15.30
2023-04-18T13:55:10.507Z,15.33
2023-04-18T13:57:37.468Z,15.40
2023-04-18T14:00:09.120Z,15.38
2023-04-18T14:03:08.054Z,15.37
2023-04-18T14:05:35.905Z,15.34
2023-04-18T14:11:53.016Z,15.50
2023-04-18T14:14:19.682Z,15.42
2023-04-18T14:16:46.232Z,15.21
2023-04-18T14:19:13.027Z,15.07
2023-04-18T14:21:39.819Z,14.98
2023-04-18T14:24:06.954Z,15.05
2023-04-18T14:26:35.698Z,15.11
2023-04-18T14:29:04.095Z,15.12
2023-04-18T14:31:33.444Z,15.08
2023-04-18T14:34:00.027Z,15.07
2023-04-18T14:36:27.231Z,15.09
2023-04-18T14:38:54.751Z,15.12
2023-04-18T14:41:23.886Z,15.23
2023-04-18T14:43:50.486Z,15.33
2023-04-18T14:46:17.606Z,15.38
2023-04-18T14:48:46.335Z,15.37
2023-04-18T14:51:13.055Z,15.35
2023-04-18T14:53:39.651Z,15.45
2023-04-18T14:57:02.273Z,15.47
2023-04-18T15:00:07.621Z,15.41
2023-04-18T15:02:35.725Z,15.42
2023-04-18T15:09:02.127Z,15.55
2023-04-18T15:11:28.753Z,15.47
2023-04-18T15:14:32.996Z,15.49
2023-04-18T15:16:59.634Z,15.47
2023-04-18T15:19:28.049Z,15.44
2023-04-18T15:25:35.845Z,15.33
2023-04-18T15:31:43.117Z,15.40
2023-04-18T15:37:51.433Z,15.57
2023-04-18T15:40:18.523Z,15.63
2023-04-18T15:42:45.771Z,15.56
2023-04-18T15:45:36.715Z,15.44
2023-04-18T15:48:03.383Z,15.32
2023-04-18T15:50:31.521Z,15.27
2023-04-18T15:56:50.874Z,15.24
2023-04-18T16:02:58.484Z,15.12
2023-04-18T16:09:38.772Z,15.05
2023-04-18T16:15:56.036Z,15.11
2023-04-18T16:19:24.043Z,15.10
2023-04-18T16:21:50.633Z,15.19
2023-04-18T16:24:54.685Z,15.21
2023-04-18T16:27:58.702Z,15.14
2023-04-18T16:30:25.310Z,15.04
2023-04-18T16:32:52.144Z,14.93
2023-04-18T16:38:59.511Z,14.90
2023-04-18T16:45:07.548Z,14.87
2023-04-18T16:51:24.962Z,14.60
2023-04-18T16:53:51.533Z,14.54
2023-04-18T16:56:18.163Z,14.45
2023-04-18T17:02:35.333Z,14.39
2023-04-18T17:05:39.719Z,14.36
2023-04-18T17:08:06.910Z,14.32
2023-04-18T17:14:24.199Z,14.20
2023-04-18T17:20:31.261Z,14.08
2023-04-18T17:23:16.830Z,14.06
2023-04-18T17:25:43.864Z,14.04
2023-04-18T17:31:51.414Z,13.97
2023-04-18T17:34:18.282Z,13.96
2023-04-18T17:36:44.949Z,13.92
2023-04-18T17:39:11.747Z,13.86
2023-04-18T17:45:29.262Z,13.74
2023-04-18T17:51:36.132Z,13.62
2023-04-18T17:54:03.015Z,13.53
2023-04-18T17:56:31.482Z,13.49
2023-04-18T17:58:58.043Z,13.45
2023-04-18T18:01:26.165Z,13.40
2023-04-18T18:08:06.392Z,13.24
2023-04-18T18:10:33.522Z,13.17
2023-04-18T18:13:18.730Z,13.13
2023-04-18T18:15:45.574Z,13.07
2023-04-18T18:47:40.110Z,12.36
2023-04-18T18:51:03.093Z,12.30
2023-04-18T18:53:29.671Z,12.23
2023-04-18T18:55:56.233Z,12.16
2023-04-18T19:02:15.096Z,12.06
2023-04-18T20:09:16.705Z,11.02
2023-04-18T20:15:24.439Z,10.94
2023-04-18T20:18:47.657Z,10.93
2023-04-18T20:21:14.255Z,10.89
2023-04-18T20:24:37.183Z,10.88
2023-04-18T20:27:03.961Z,10.83
2023-04-18T20:30:27.129Z,10.80
2023-04-18T20:32:53.704Z,10.76
2023-04-18T20:36:16.805Z,10.76
2023-04-18T20:38:44.473Z,10.73
2023-04-18T20:41:51.429Z,10.70
2023-04-18T20:44:21.779Z,10.68
2023-04-18T20:46:48.395Z,10.64
2023-04-18T20:50:11.397Z,10.61
2023-04-18T20:52:38.028Z,10.56
2023-04-18T20:56:01.225Z,10.52
2023-04-18T20:58:27.786Z,10.47
2023-04-18T21:01:32.284Z,10.44
2023-04-18T21:04:03.223Z,10.39
2023-04-18T21:06:30.013Z,10.36
2023-04-18T21:08:56.647Z,10.34
2023-04-18T21:12:19.463Z,10.30
2023-04-18T21:14:46.264Z,10.28
2023-04-18T21:18:09.197Z,10.27
2023-04-18T21:20:36.852Z,10.28
2023-04-18T21:23:59.803Z,10.27
2023-04-18T21:26:26.420Z,10.22
2023-04-18T21:29:49.395Z,10.17
2023-04-18T21:32:15.980Z,10.10
2023-04-18T21:35:38.592Z,10.05
2023-04-18T21:38:05.246Z,10.03
2023-04-18T21:40:50.661Z,9.96
2023-04-18T21:43:17.202Z,9.92
2023-04-18T21:46:39.859Z,9.88
2023-04-18T21:49:06.920Z,9.84
2023-04-18T21:52:30.101Z,9.80
2023-04-18T21:55:03.358Z,9.78
2023-04-18T22:02:07.168Z,9.70
2023-04-18T22:05:07.635Z,9.65
2023-04-18T22:07:43.314Z,9.61
2023-04-18T22:10:21.350Z,9.60
2023-04-18T22:16:28.937Z,9.54
2023-04-18T22:22:36.351Z,9.53
2023-04-18T22:28:53.215Z,9.48
2023-04-18T22:32:16.160Z,9.49
2023-04-18T22:34:43.031Z,9.51
2023-04-18T22:37:10.066Z,9.52
2023-04-18T22:39:55.576Z,9.56
2023-04-18T22:42:22.106Z,9.59
2023-04-18T22:45:44.832Z,9.63
2023-04-18T22:52:41.859Z,9.75
2023-04-18T22:55:15.283Z,9.80
2023-04-18T22:58:39.745Z,9.84
2023-04-18T23:01:06.480Z,9.87
2023-04-18T23:03:34.392Z,9.93
2023-04-18T23:10:31.000Z,9.99
2023-04-18T23:12:57.836Z,10.03
2023-04-18T23:16:21.267Z,10.06
2023-04-18T23:18:47.851Z,10.09
2023-04-18T23:22:10.912Z,10.11
2023-04-18T23:28:28.426Z,10.13
2023-04-18T23:31:01.291Z,10.15
2023-04-18T23:38:04.585Z,10.19
2023-04-18T23:41:27.595Z,10.19
2023-04-18T23:43:54.218Z,10.21
2023-04-18T23:50:12.104Z,10.20
2023-04-18T23:56:29.752Z,10.20
2023-04-18T23:59:21.312Z,10.21
